createdAt,value
2023-07-20T00:01:35.061Z,18.70
2023-07-20T00:04:02.514Z,18.50
2023-07-20T00:06:29.565Z,18.50
2023-07-20T00:08:56.943Z,18.50
2023-07-20T00:11:27.312Z,18.40
2023-07-20T00:13:54.267Z,18.40
2023-07-20T00:16:22.008Z,18.40
2023-07-20T00:18:49.361Z,18.40
2023-07-20T00:21:16.414Z,18.40
2023-07-20T00:23:43.565Z,18.40
2023-07-20T00:26:10.552Z,18.40
2023-07-20T00:28:37.603Z,18.40
2023-07-20T00:31:05.209Z,18.30
2023-07-20T00:33:32.325Z,18.10
2023-07-20T00:36:00.075Z,18.00
2023-07-20T00:38:27.125Z,18.00
2023-07-20T00:40:54.125Z,17.90
2023-07-20T00:43:21.237Z,17.70
2023-07-20T00:45:48.826Z,17.70
2023-07-20T00:48:16.168Z,17.60
2023-07-20T00:50:44.091Z,17.60
2023-07-20T00:53:11.138Z,17.50
2023-07-20T00:55:38.246Z,17.50
2023-07-20T00:58:05.263Z,17.50
2023-07-20T01:00:32.553Z,17.50
2023-07-20T01:02:59.620Z,17.70
2023-07-20T01:05:56.148Z,17.60
2023-07-20T01:08:25.590Z,17.50
2023-07-20T01:10:57.252Z,17.40
2023-07-20T01:13:24.391Z,17.40
2023-07-20T01:16:02.098Z,17.30
2023-07-20T01:18:29.140Z,17.10
2023-07-20T01:21:06.757Z,17.00
2023-07-20T01:23:41.251Z,17.00
2023-07-20T01:27:02.889Z,16.90
2023-07-20T01:29:50.940Z,16.80
2023-07-20T01:32:18.658Z,16.80
2023-07-20T01:34:45.631Z,16.80
2023-07-20T01:37:12.714Z,16.90
2023-07-20T01:39:40.113Z,16.80
2023-07-20T01:42:07.315Z,16.80
2023-07-20T01:44:34.389Z,16.60
2023-07-20T01:47:01.433Z,16.70
2023-07-20T01:49:28.641Z,16.70
2023-07-20T01:51:55.763Z,16.70
2023-07-20T01:54:22.797Z,16.70
2023-07-20T01:56:49.794Z,16.70
2023-07-20T01:59:16.771Z,16.70
2023-07-20T02:01:43.930Z,16.70
2023-07-20T02:04:12.398Z,16.70
2023-07-20T02:06:39.636Z,16.70
2023-07-20T02:09:06.733Z,16.60
2023-07-20T02:11:33.873Z,16.70
2023-07-20T02:14:01.169Z,16.80
2023-07-20T02:16:28.282Z,16.90
2023-07-20T02:18:58.014Z,16.80
2023-07-20T02:21:25.383Z,16.70
2023-07-20T02:23:52.790Z,16.50
2023-07-20T02:26:20.034Z,16.50
2023-07-20T02:28:47.376Z,16.50
2023-07-20T02:31:14.486Z,16.40
2023-07-20T02:33:41.976Z,16.40
2023-07-20T02:36:09.182Z,16.50
2023-07-20T02:38:36.276Z,16.70
2023-07-20T02:41:03.878Z,16.90
2023-07-20T02:43:30.997Z,16.90
2023-07-20T02:45:58.039Z,16.80
2023-07-20T02:48:24.990Z,16.80
2023-07-20T02:50:51.952Z,16.70
2023-07-20T02:53:19.183Z,16.60
2023-07-20T02:55:46.185Z,16.60
2023-07-20T02:58:13.198Z,16.60
2023-07-20T03:00:40.276Z,16.60
2023-07-20T03:03:10.761Z,16.70
2023-07-20T03:05:40.660Z,16.70
2023-07-20T03:08:07.669Z,16.70
2023-07-20T03:10:39.217Z,16.60
2023-07-20T03:13:06.229Z,16.50
2023-07-20T03:15:33.537Z,16.50
2023-07-20T03:18:00.714Z,16.40
2023-07-20T03:20:29.300Z,16.40
2023-07-20T03:22:56.500Z,16.30
2023-07-20T03:25:24.906Z,16.30
2023-07-20T03:27:52.879Z,16.30
2023-07-20T03:30:21.437Z,16.30
2023-07-20T03:32:49.153Z,16.40
2023-07-20T03:35:17.392Z,16.50
2023-07-20T03:37:44.530Z,16.60
2023-07-20T03:40:12.041Z,16.70
2023-07-20T03:42:39.895Z,16.50
2023-07-20T03:45:07.666Z,16.40
2023-07-20T03:47:34.917Z,16.40
2023-07-20T03:50:02.024Z,16.50
2023-07-20T03:52:29.042Z,16.60
2023-07-20T03:54:56.350Z,16.50
2023-07-20T03:57:23.596Z,16.40
2023-07-20T03:59:50.794Z,16.20
2023-07-20T04:02:18.213Z,16.10
2023-07-20T04:04:49.439Z,16.10
2023-07-20T04:07:16.678Z,16.00
2023-07-20T04:09:43.723Z,15.90
2023-07-20T04:12:11.035Z,15.80
2023-07-20T04:14:38.068Z,15.70
2023-07-20T04:17:06.224Z,15.70
2023-07-20T04:19:33.347Z,15.70
2023-07-20T04:22:00.543Z,15.70
2023-07-20T04:24:27.750Z,15.80
2023-07-20T04:26:55.280Z,16.00
2023-07-20T04:29:22.267Z,16.00
2023-07-20T04:31:49.520Z,15.90
2023-07-20T04:34:16.563Z,15.80
2023-07-20T04:36:45.595Z,15.70
2023-07-20T04:39:21.950Z,15.60
2023-07-20T04:41:57.743Z,15.50
2023-07-20T04:44:25.612Z,15.60
2023-07-20T04:46:52.791Z,15.80
2023-07-20T04:49:19.877Z,15.90
2023-07-20T04:51:47.010Z,15.90
2023-07-20T04:54:14.856Z,15.80
2023-07-20T04:56:42.387Z,15.70
2023-07-20T04:59:11.338Z,15.80
2023-07-20T05:01:38.432Z,15.90
2023-07-20T05:04:05.653Z,16.10
2023-07-20T05:06:32.756Z,16.30
2023-07-20T05:09:01.187Z,16.20
2023-07-20T05:11:28.225Z,16.00
2023-07-20T05:13:55.354Z,16.00
2023-07-20T05:16:22.601Z,16.40
2023-07-20T05:18:49.857Z,16.80
2023-07-20T05:21:17.237Z,17.30
2023-07-20T05:23:44.605Z,17.70
2023-07-20T05:26:12.760Z,18.30
2023-07-20T05:28:39.778Z,18.90
2023-07-20T05:31:07.610Z,19.50
2023-07-20T05:33:34.679Z,19.80
2023-07-20T05:36:01.672Z,20.00
2023-07-20T05:38:28.874Z,20.20
2023-07-20T05:41:00.301Z,20.40
2023-07-20T05:43:27.436Z,20.50
2023-07-20T05:45:54.765Z,20.70
2023-07-20T05:48:21.896Z,20.90
2023-07-20T05:50:49.240Z,21.20
2023-07-20T05:53:16.213Z,21.30
2023-07-20T05:55:43.270Z,21.70
2023-07-20T05:58:10.396Z,21.90
2023-07-20T06:00:37.969Z,21.90
2023-07-20T06:03:05.175Z,21.80
2023-07-20T06:05:32.466Z,21.90
2023-07-20T06:08:01.591Z,22.00
2023-07-20T06:10:28.819Z,22.20
2023-07-20T06:12:57.442Z,22.30
2023-07-20T06:15:29.016Z,22.40
2023-07-20T06:17:57.356Z,22.70
2023-07-20T06:20:24.962Z,22.70
2023-07-20T06:22:52.192Z,22.80
2023-07-20T06:25:19.441Z,22.80
2023-07-20T06:27:46.489Z,22.50
2023-07-20T06:30:13.673Z,22.10
2023-07-20T06:32:40.823Z,21.60
2023-07-20T06:35:09.593Z,21.30
2023-07-20T06:37:36.926Z,21.20
2023-07-20T06:45:05.626Z,20.30
2023-07-20T06:47:32.730Z,20.10
2023-07-20T06:49:59.809Z,20.00
2023-07-20T06:52:27.026Z,20.00
2023-07-20T06:54:54.056Z,20.20
2023-07-20T06:59:53.185Z,20.40
2023-07-20T07:05:00.529Z,20.30
2023-07-20T07:07:28.507Z,20.60
2023-07-20T07:09:55.626Z,21.10
2023-07-20T07:12:22.667Z,21.90
2023-07-20T07:14:49.704Z,22.60
2023-07-20T07:17:19.940Z,22.80
2023-07-20T07:19:49.565Z,23.10
2023-07-20T07:22:16.991Z,23.20
2023-07-20T07:24:44.079Z,23.50
2023-07-20T07:27:11.448Z,23.50
2023-07-20T07:29:38.515Z,23.80
2023-07-20T07:32:06.058Z,24.20
2023-07-20T07:34:35.842Z,24.10
2023-07-20T07:37:03.130Z,24.10
2023-07-20T07:39:35.192Z,24.30
2023-07-20T07:42:02.622Z,24.60
2023-07-20T07:44:29.702Z,24.80
2023-07-20T07:46:56.806Z,25.10
2023-07-20T07:49:23.849Z,25.40
2023-07-20T07:51:51.280Z,25.30
2023-07-20T07:54:18.278Z,25.70
2023-07-20T07:56:45.867Z,26.10
2023-07-20T07:59:13.004Z,26.40
2023-07-20T08:01:42.166Z,26.60
2023-07-20T08:04:12.407Z,26.50
2023-07-20T08:06:39.420Z,26.40
2023-07-20T08:09:07.075Z,25.50
2023-07-20T08:11:37.761Z,24.80
2023-07-20T08:14:05.097Z,24.70
2023-07-20T08:16:32.557Z,24.20
2023-07-20T08:18:59.869Z,23.90
2023-07-20T08:21:27.420Z,24.10
2023-07-20T08:23:54.468Z,24.00
2023-07-20T08:26:24.204Z,23.60
2023-07-20T08:28:51.728Z,23.80
2023-07-20T08:31:19.416Z,24.50
2023-07-20T08:33:46.449Z,24.80
2023-07-20T08:36:13.841Z,25.00
2023-07-20T08:38:41.377Z,24.90
2023-07-20T08:41:08.392Z,24.90
2023-07-20T08:43:35.941Z,24.90
2023-07-20T08:46:03.734Z,24.60
2023-07-20T08:48:30.896Z,24.00
2023-07-20T08:50:58.615Z,23.80
2023-07-20T08:53:25.666Z,23.70
2023-07-20T08:55:55.704Z,23.80
2023-07-20T08:58:22.741Z,24.10
2023-07-20T09:00:51.776Z,24.20
2023-07-20T09:03:20.687Z,24.00
2023-07-20T09:05:47.870Z,23.60
2023-07-20T09:08:15.030Z,23.70
2023-07-20T09:10:42.124Z,24.30
2023-07-20T09:13:10.781Z,25.10
2023-07-20T09:15:42.803Z,25.60
2023-07-20T09:18:14.570Z,26.10
2023-07-20T09:20:43.258Z,26.80
2023-07-20T09:23:10.247Z,26.80
2023-07-20T09:25:37.358Z,27.10
2023-07-20T09:28:05.925Z,27.10
2023-07-20T09:30:33.654Z,26.40
2023-07-20T09:33:01.472Z,26.00
2023-07-20T09:35:35.444Z,25.80
2023-07-20T09:50:52.695Z,25.50
2023-07-20T09:53:20.403Z,26.00
2023-07-20T09:55:48.701Z,26.50
2023-07-20T09:58:17.265Z,25.80
2023-07-20T10:03:20.516Z,24.80
2023-07-20T10:05:50.531Z,24.50
2023-07-20T10:10:48.232Z,24.20
2023-07-20T10:13:25.923Z,24.30
2023-07-20T10:15:56.252Z,24.70
2023-07-20T10:18:52.203Z,24.60
2023-07-20T10:23:50.626Z,24.40
2023-07-20T10:26:17.635Z,24.70
2023-07-20T10:28:44.715Z,24.90
2023-07-20T10:31:13.089Z,24.90
2023-07-20T10:33:40.488Z,24.80
2023-07-20T10:36:07.652Z,25.00
2023-07-20T10:38:46.959Z,25.20
2023-07-20T10:41:29.138Z,25.20
2023-07-20T10:44:05.390Z,25.00
2023-07-20T10:46:46.486Z,24.50
2023-07-20T10:49:16.188Z,24.30
2023-07-20T10:51:58.676Z,24.10
2023-07-20T10:54:25.628Z,24.30
2023-07-20T10:56:52.622Z,23.90
2023-07-20T10:59:22.846Z,24.10
2023-07-20T11:01:53.899Z,23.80
2023-07-20T11:04:20.969Z,23.80
2023-07-20T11:06:50.001Z,24.10
2023-07-20T11:09:17.208Z,24.20
2023-07-20T11:11:48.079Z,24.30
2023-07-20T11:14:25.582Z,23.60
2023-07-20T11:16:53.549Z,23.50
2023-07-20T11:22:03.622Z,24.00
2023-07-20T11:24:32.265Z,23.80
2023-07-20T11:26:59.600Z,23.90
2023-07-20T11:31:57.556Z,24.00
2023-07-20T11:34:25.007Z,23.80
2023-07-20T11:39:23.627Z,23.40
2023-07-20T11:41:51.874Z,23.50
2023-07-20T11:44:19.383Z,23.40
2023-07-20T11:46:46.554Z,23.60
2023-07-20T11:49:13.773Z,23.80
2023-07-20T11:51:41.377Z,24.10
2023-07-20T11:54:09.486Z,24.40
2023-07-20T11:56:36.482Z,24.30
2023-07-20T11:59:04.138Z,23.80
2023-07-20T12:01:33.296Z,24.10
2023-07-20T12:04:02.931Z,23.90
2023-07-20T12:06:30.588Z,23.90
2023-07-20T12:09:01.373Z,23.80
2023-07-20T12:11:35.140Z,23.70
2023-07-20T12:14:15.673Z,24.00
2023-07-20T12:16:44.694Z,24.40
2023-07-20T12:19:13.409Z,24.60
2023-07-20T12:21:43.613Z,24.60
2023-07-20T12:24:11.882Z,24.30
2023-07-20T12:26:39.271Z,24.00
2023-07-20T12:29:07.604Z,24.00
2023-07-20T12:31:36.733Z,23.70
2023-07-20T12:34:03.939Z,23.60
2023-07-20T12:36:32.181Z,23.70
2023-07-20T12:38:59.679Z,23.80
2023-07-20T12:41:26.760Z,23.80
2023-07-20T12:43:54.882Z,24.00
2023-07-20T12:46:22.438Z,24.30
2023-07-20T12:48:50.266Z,24.20
2023-07-20T12:51:18.082Z,24.00
2023-07-20T12:53:45.386Z,24.00
2023-07-20T12:58:42.249Z,23.80
2023-07-20T13:01:09.343Z,23.70
2023-07-20T13:04:13.025Z,23.80
2023-07-20T13:08:56.920Z,23.70
2023-07-20T13:11:24.173Z,23.70
2023-07-20T13:13:51.439Z,23.90
2023-07-20T13:16:18.548Z,24.30
2023-07-20T13:18:45.569Z,24.60
2023-07-20T13:21:13.360Z,24.70
2023-07-20T13:23:40.517Z,24.60
2023-07-20T13:26:09.587Z,24.50
2023-07-20T13:28:37.983Z,24.60
2023-07-20T13:31:05.266Z,24.80
2023-07-20T13:33:37.435Z,24.90
2023-07-20T13:36:09.723Z,25.10
2023-07-20T13:38:37.462Z,25.30
2023-07-20T13:41:04.585Z,25.30
2023-07-20T13:43:31.643Z,25.10
2023-07-20T13:45:58.688Z,25.20
2023-07-20T13:48:28.396Z,25.30
2023-07-20T13:58:26.658Z,24.70
2023-07-20T14:00:53.729Z,24.50
2023-07-20T14:03:20.920Z,24.20
2023-07-20T14:08:17.984Z,24.00
2023-07-20T14:13:15.144Z,23.90
2023-07-20T14:15:42.237Z,24.00
2023-07-20T14:18:09.467Z,24.20
2023-07-20T14:20:39.322Z,24.40
2023-07-20T14:23:06.779Z,24.30
2023-07-20T14:25:37.878Z,24.40
2023-07-20T14:28:05.522Z,24.40
2023-07-20T14:30:32.591Z,24.40
2023-07-20T14:32:59.683Z,24.30
2023-07-20T14:35:27.382Z,24.30
2023-07-20T14:37:54.377Z,24.30
2023-07-20T14:40:21.366Z,24.60
2023-07-20T14:42:48.439Z,24.80
2023-07-20T14:45:15.528Z,24.90
2023-07-20T14:47:44.472Z,25.20
2023-07-20T14:50:11.960Z,25.40
2023-07-20T14:52:49.002Z,25.30
2023-07-20T14:55:16.904Z,25.30
2023-07-20T14:57:44.239Z,25.30
2023-07-20T15:00:11.845Z,25.40
2023-07-20T15:02:39.368Z,25.40
2023-07-20T15:05:09.858Z,25.40
2023-07-20T15:07:36.956Z,25.60
2023-07-20T15:10:05.130Z,25.70
2023-07-20T15:12:32.531Z,25.70
2023-07-20T15:15:06.655Z,25.60
2023-07-20T15:17:46.541Z,25.30
2023-07-20T15:21:01.984Z,25.30
2023-07-20T15:24:00.781Z,25.20
2023-07-20T15:26:55.933Z,25.10
2023-07-20T15:30:11.034Z,24.90
2023-07-20T15:33:19.662Z,24.90
2023-07-20T15:36:25.575Z,24.80
2023-07-20T15:39:14.576Z,24.70
2023-07-20T15:41:41.600Z,24.80
2023-07-20T15:44:11.369Z,25.00
2023-07-20T15:46:41.507Z,24.90
2023-07-20T15:49:08.807Z,25.00
2023-07-20T15:51:37.797Z,25.00
2023-07-20T15:54:08.614Z,25.00
2023-07-20T15:56:36.074Z,25.10
2023-07-20T15:59:03.259Z,25.20
2023-07-20T16:01:31.508Z,25.00
2023-07-20T16:03:59.003Z,25.00
2023-07-20T16:06:26.058Z,25.00
2023-07-20T16:08:53.116Z,24.90
2023-07-20T16:11:20.580Z,24.80
2023-07-20T16:13:47.568Z,24.60
2023-07-20T16:16:14.523Z,24.60
2023-07-20T16:18:41.998Z,24.70
2023-07-20T16:21:09.091Z,24.80
2023-07-20T16:23:36.500Z,24.60
2023-07-20T16:26:14.178Z,24.70
2023-07-20T16:28:42.215Z,24.90
2023-07-20T16:31:16.405Z,25.10
2023-07-20T16:33:46.801Z,24.80
2023-07-20T16:36:15.316Z,24.70
2023-07-20T16:38:44.448Z,24.50
2023-07-20T16:41:12.759Z,24.60
2023-07-20T16:51:11.119Z,24.90
2023-07-20T16:53:38.174Z,24.90
2023-07-20T16:56:05.375Z,24.90
2023-07-20T16:58:32.379Z,25.00
2023-07-20T17:01:05.740Z,24.90
2023-07-20T17:03:33.032Z,24.70
2023-07-20T17:06:00.777Z,24.50
2023-07-20T17:08:28.000Z,24.50
2023-07-20T17:10:55.038Z,24.50
2023-07-20T17:13:22.256Z,24.40
2023-07-20T17:15:49.840Z,24.20
2023-07-20T17:18:17.317Z,24.00
2023-07-20T17:23:15.598Z,23.90
2023-07-20T17:31:03.231Z,23.70
2023-07-20T17:33:30.283Z,23.70
2023-07-20T17:40:58.260Z,23.50
2023-07-20T17:43:25.214Z,23.40
2023-07-20T17:45:52.279Z,23.50
2023-07-20T17:48:19.362Z,23.50
2023-07-20T17:50:48.426Z,23.50
2023-07-20T17:53:15.641Z,23.50
2023-07-20T17:55:42.838Z,23.50
2023-07-20T17:58:11.190Z,23.50
2023-07-20T18:00:38.859Z,23.50
2023-07-20T18:03:06.500Z,23.30
2023-07-20T18:05:33.659Z,23.30
2023-07-20T18:08:00.799Z,23.20
2023-07-20T18:10:28.023Z,23.30
2023-07-20T18:12:55.042Z,23.20
2023-07-20T18:15:22.275Z,23.10
2023-07-20T18:17:50.654Z,23.00
2023-07-20T18:20:17.690Z,23.00
2023-07-20T18:22:44.885Z,22.90
2023-07-20T18:25:12.707Z,22.90
2023-07-20T18:27:40.087Z,22.80
2023-07-20T18:30:08.089Z,22.80
2023-07-20T18:32:35.541Z,22.80
2023-07-20T18:35:04.216Z,22.90
2023-07-20T18:37:31.706Z,23.00
2023-07-20T18:39:59.530Z,23.00
2023-07-20T18:42:26.707Z,22.90
2023-07-20T18:44:53.883Z,22.70
2023-07-20T18:47:21.076Z,22.50
2023-07-20T18:49:49.796Z,22.40
2023-07-20T18:52:17.088Z,22.40
2023-07-20T18:54:44.565Z,22.40
2023-07-20T18:57:11.568Z,22.50
2023-07-20T18:59:38.571Z,22.40
2023-07-20T19:02:05.967Z,22.40
2023-07-20T19:04:32.952Z,22.40
2023-07-20T19:06:59.958Z,22.30
2023-07-20T19:09:27.099Z,22.20
2023-07-20T19:11:55.593Z,22.10
2023-07-20T19:14:22.870Z,22.10
2023-07-20T19:16:49.887Z,22.00
2023-07-20T19:19:16.875Z,21.90
2023-07-20T19:21:43.862Z,21.90
2023-07-20T19:24:10.916Z,21.80
2023-07-20T19:26:37.964Z,21.70
2023-07-20T19:29:05.005Z,21.60
2023-07-20T19:31:32.034Z,21.60
2023-07-20T19:33:59.146Z,21.60
2023-07-20T19:36:26.575Z,21.60
2023-07-20T19:38:53.754Z,21.60
2023-07-20T19:41:20.716Z,21.50
2023-07-20T19:43:47.751Z,21.40
2023-07-20T19:46:14.736Z,21.40
2023-07-20T19:48:41.748Z,21.30
2023-07-20T19:51:08.851Z,21.40
2023-07-20T19:53:36.288Z,21.30
2023-07-20T19:56:04.177Z,21.20
2023-07-20T19:58:32.181Z,21.20
2023-07-20T20:06:00.405Z,21.10
2023-07-20T20:08:27.486Z,21.00
2023-07-20T20:11:18.329Z,20.90
2023-07-20T20:13:42.269Z,20.90
2023-07-20T20:16:09.539Z,20.80
2023-07-20T20:18:44.047Z,20.70
2023-07-20T20:21:12.787Z,20.60
2023-07-20T20:23:42.807Z,20.70
2023-07-20T20:26:09.867Z,20.60
2023-07-20T20:28:37.069Z,20.70
2023-07-20T20:31:05.575Z,20.60
2023-07-20T20:33:36.866Z,20.70
2023-07-20T20:36:04.405Z,20.70
2023-07-20T20:38:31.488Z,20.60
2023-07-20T20:41:01.662Z,20.60
2023-07-20T20:43:31.139Z,20.60
2023-07-20T20:46:06.676Z,20.60
2023-07-20T20:48:38.840Z,20.60
2023-07-20T20:51:06.086Z,20.50
2023-07-20T20:53:33.042Z,20.50
2023-07-20T20:56:00.764Z,20.50
2023-07-20T20:58:27.774Z,20.40
2023-07-20T21:00:54.964Z,20.40
2023-07-20T21:03:22.415Z,20.40
2023-07-20T21:05:49.441Z,20.40
2023-07-20T21:08:16.763Z,20.40
2023-07-20T21:10:46.900Z,20.40
2023-07-20T21:13:15.280Z,20.40
2023-07-20T21:15:42.694Z,20.40
2023-07-20T21:18:09.845Z,20.30
2023-07-20T21:20:37.037Z,20.30
2023-07-20T21:23:04.013Z,20.20
2023-07-20T21:25:31.155Z,20.20
2023-07-20T21:27:58.454Z,20.10
2023-07-20T21:30:28.766Z,20.10
2023-07-20T21:32:57.280Z,20.10
2023-07-20T21:35:24.749Z,20.10
2023-07-20T21:37:52.366Z,20.10
2023-07-20T21:40:19.901Z,20.00
2023-07-20T21:42:46.973Z,20.00
2023-07-20T21:45:14.005Z,19.90
2023-07-20T21:47:41.068Z,19.70
2023-07-20T21:50:08.340Z,19.70
2023-07-20T21:52:35.601Z,19.80
2023-07-20T21:55:04.784Z,19.90
2023-07-20T21:57:32.255Z,19.90
2023-07-20T21:59:59.250Z,19.90
2023-07-20T22:02:26.401Z,19.90
2023-07-20T22:04:53.984Z,19.90
2023-07-20T22:07:21.738Z,19.80
2023-07-20T22:09:48.886Z,19.80
2023-07-20T22:12:18.550Z,19.80
2023-07-20T22:14:45.753Z,19.70
2023-07-20T22:17:16.134Z,19.70
2023-07-20T22:19:43.278Z,19.80
2023-07-20T22:22:11.206Z,19.70
2023-07-20T22:24:38.489Z,19.70
2023-07-20T22:27:06.588Z,19.60
2023-07-20T22:29:35.670Z,19.50
2023-07-20T22:32:04.226Z,19.50
2023-07-20T22:34:33.721Z,19.30
2023-07-20T22:37:01.111Z,19.20
2023-07-20T22:39:28.751Z,19.20
2023-07-20T22:41:55.759Z,19.20
2023-07-20T22:44:23.362Z,19.10
2023-07-20T22:46:50.465Z,19.00
2023-07-20T22:49:17.637Z,19.10
2023-07-20T22:51:44.587Z,19.10
2023-07-20T22:54:12.354Z,19.20
2023-07-20T22:56:39.314Z,19.20
2023-07-20T22:59:06.686Z,19.20
2023-07-20T23:01:33.713Z,19.00
2023-07-20T23:04:00.895Z,19.00
2023-07-20T23:06:28.214Z,18.90
2023-07-20T23:08:55.328Z,18.90
2023-07-20T23:11:24.619Z,18.70
2023-07-20T23:13:52.034Z,18.70
2023-07-20T23:16:19.453Z,18.70
2023-07-20T23:18:48.607Z,18.70
2023-07-20T23:21:15.602Z,18.60
2023-07-20T23:23:45.077Z,18.60
2023-07-20T23:26:14.657Z,18.60
2023-07-20T23:28:41.756Z,18.60
2023-07-20T23:31:08.945Z,18.50
2023-07-20T23:33:36.016Z,18.40
2023-07-20T23:36:09.401Z,18.50
2023-07-20T23:38:42.414Z,18.50
2023-07-20T23:41:10.089Z,18.50
2023-07-20T23:43:38.807Z,18.40
2023-07-20T23:46:06.162Z,18.30
2023-07-20T23:48:43.118Z,18.30
2023-07-20T23:51:11.827Z,18.10
2023-07-20T23:53:38.830Z,18.10
2023-07-20T23:56:06.038Z,18.10
2023-07-20T23:58:35.057Z,18.10
